Time;durP1;ratioP1;P1;durP2;ratioP2;P2;SDS_P1;SDS_P2;PMS_P1;PMS_P2;Temp;Humidity;BMP_temperature;BMP_pressure;BME280_temperature;BME280_humidity;BME280_pressure;Samples;Min_cycle;Max_cycle;Signal;HPM_P1;HPM_P2
2021/08/18 00:01:47;;;;;;;;;5.00;4.50;;;;;18.72;51.33;101553.16;5081758;27;45322;-49
2021/08/18 00:04:13;;;;;;;;;6.25;6.25;;;;;18.66;51.56;101548.03;5081581;28;45227;-49
2021/08/18 00:06:38;;;;;;;;;5.75;4.25;;;;;18.67;51.76;101553.31;5080313;28;45749;-46
2021/08/18 00:09:04;;;;;;;;;3.00;1.75;;;;;18.64;51.80;101548.09;5081940;28;45256;-46
2021/08/18 00:11:29;;;;;;;;;4.00;4.00;;;;;18.64;51.64;101548.09;5081598;27;45315;-49
2021/08/18 00:13:55;;;;;;;;;5.50;3.00;;;;;18.61;51.72;101550.00;5080272;28;46015;-46
2021/08/18 00:16:24;;;;;;;;;7.50;4.75;;;;;18.58;52.14;101550.09;5081671;28;45310;-46
2021/08/18 00:18:52;;;;;;;;;6.00;6.00;;;;;18.54;52.01;101544.03;5081908;28;45295;-45
2021/08/18 00:21:19;;;;;;;;;5.00;4.00;;;;;18.55;51.64;101543.09;5080145;28;45323;-48
2021/08/18 00:23:45;;;;;;;;;4.00;4.00;;;;;18.54;51.98;101537.81;5081432;28;45448;-49
2021/08/18 00:26:11;;;;;;;;;4.50;4.50;;;;;18.52;51.77;101529.91;5081396;27;45322;-50
2021/08/18 00:28:36;;;;;;;;;4.75;4.25;;;;;18.51;51.80;101529.03;5081664;28;45279;-50
2021/08/18 00:31:02;;;;;;;;;5.00;4.25;;;;;18.51;52.20;101538.81;5081571;28;46697;-50
2021/08/18 00:33:29;;;;;;;;;4.50;3.75;;;;;18.47;52.47;101535.38;5081531;28;45494;-49
2021/08/18 00:35:55;;;;;;;;;6.75;6.75;;;;;18.46;52.08;101530.97;5079938;28;45907;-49
2021/08/18 00:38:20;;;;;;;;;3.25;3.25;;;;;18.41;52.09;101522.28;5081688;28;45265;-46
2021/08/18 00:40:46;;;;;;;;;5.00;5.00;;;;;18.46;52.34;101527.44;5079960;27;45598;-46
2021/08/18 00:43:13;;;;;;;;;6.00;6.00;;;;;18.45;52.44;101529.25;5081367;28;46194;-49
2021/08/18 00:45:38;;;;;;;;;5.00;5.00;;;;;18.42;52.39;101524.03;5081166;28;45358;-48
2021/08/18 00:48:04;;;;;;;;;4.50;4.50;;;;;18.42;52.68;101516.03;5081368;28;45857;-46
2021/08/18 00:50:30;;;;;;;;;5.50;3.25;;;;;18.43;52.50;101524.91;5079619;27;45314;-45
2021/08/18 00:52:55;;;;;;;;;8.50;6.75;;;;;18.42;52.60;101524.03;5081407;28;45392;-45
2021/08/18 00:55:23;;;;;;;;;3.50;3.50;;;;;18.43;52.51;101525.78;5080980;28;45294;-45
2021/08/18 00:57:48;;;;;;;;;6.00;4.75;;;;;18.44;52.27;101530.16;5081304;28;45297;-45
2021/08/18 01:00:16;;;;;;;;;4.25;3.75;;;;;18.43;52.67;101527.56;5080709;28;45313;-47
2021/08/18 01:02:44;;;;;;;;;4.25;4.25;;;;;18.43;52.59;101523.09;5081145;28;45212;-47
2021/08/18 01:05:12;;;;;;;;;6.75;4.75;;;;;18.43;52.26;101528.44;5080289;28;45385;-47
2021/08/18 01:07:38;;;;;;;;;6.00;6.00;;;;;18.36;52.98;101524.22;5081002;28;45426;-45
2021/08/18 01:10:09;;;;;;;;;2.25;2.25;;;;;18.38;52.47;101526.84;5080960;28;45344;-51
2021/08/18 01:12:35;;;;;;;;;3.00;3.00;;;;;18.36;52.44;101529.56;5080720;28;45336;-45
2021/08/18 01:15:06;;;;;;;;;3.00;3.00;;;;;18.36;52.57;101521.56;5080949;28;45409;-48
2021/08/18 01:17:33;;;;;;;;;1.00;1.00;;;;;18.36;52.78;101518.91;5079512;28;45287;-47
2021/08/18 01:20:00;;;;;;;;;3.25;3.25;;;;;18.31;52.58;101513.78;5080611;28;45381;-48
2021/08/18 01:22:25;;;;;;;;;4.00;3.50;;;;;18.30;52.73;101519.13;5079193;28;47203;-47
2021/08/18 01:24:51;;;;;;;;;8.00;3.50;;;;;18.26;52.91;101507.72;5080685;28;45328;-45
2021/08/18 01:27:17;;;;;;;;;4.75;4.75;;;;;18.27;52.83;101513.91;5080676;28;45347;-48
2021/08/18 01:29:43;;;;;;;;;5.75;5.75;;;;;18.28;52.58;101513.00;5080669;27;45541;-46
2021/08/18 01:32:08;;;;;;;;;3.75;3.75;;;;;18.29;52.82;101512.09;5080486;28;45214;-48
2021/08/18 01:34:35;;;;;;;;;3.75;3.75;;;;;18.29;52.93;101510.28;5080339;28;45206;-49
2021/08/18 01:37:01;;;;;;;;;5.00;3.00;;;;;18.30;52.71;101511.13;5080671;28;45184;-45
2021/08/18 01:39:26;;;;;;;;;4.00;3.00;;;;;18.30;52.80;101508.47;5080793;28;45204;-52
2021/08/18 01:41:51;;;;;;;;;4.00;4.00;;;;;18.30;53.00;101505.81;5078889;28;46230;-50
2021/08/18 01:44:17;;;;;;;;;4.00;3.50;;;;;18.27;52.60;101506.78;5080578;28;45279;-51
2021/08/18 01:46:42;;;;;;;;;3.75;2.50;;;;;18.30;52.66;101503.16;5080453;28;45261;-47
2021/08/18 01:49:07;;;;;;;;;8.25;6.25;;;;;18.30;53.02;101512.03;5080395;28;45222;-46
2021/08/18 01:51:33;;;;;;;;;5.25;5.00;;;;;18.29;52.82;101515.59;5080310;28;46586;-48
2021/08/18 01:53:58;;;;;;;;;4.00;3.25;;;;;18.29;53.14;101507.63;5058740;28;45390;-48
2021/08/18 01:56:23;;;;;;;;;5.25;5.25;;;;;18.21;53.07;101493.69;5074478;28;45449;-47
2021/08/18 01:58:49;;;;;;;;;5.75;4.25;;;;;18.27;53.08;101503.28;5080154;28;45385;-47
2021/08/18 02:01:16;;;;;;;;;5.25;4.50;;;;;18.27;53.21;101503.28;5080100;27;46136;-48
2021/08/18 02:03:42;;;;;;;;;6.75;4.75;;;;;18.27;53.15;101501.47;5080118;28;45363;-46
2021/08/18 02:06:07;;;;;;;;;6.50;3.00;;;;;18.27;52.82;101501.47;5080113;28;45313;-47
2021/08/18 02:08:33;;;;;;;;;6.00;5.00;;;;;18.28;52.81;101500.56;5080339;28;45311;-44
2021/08/18 02:10:58;;;;;;;;;4.50;2.75;;;;;18.29;53.13;101489.00;5080015;28;45234;-49
2021/08/18 02:13:24;;;;;;;;;4.00;4.00;;;;;18.29;53.12;101496.97;5080117;28;45255;-45
2021/08/18 02:15:50;;;;;;;;;4.25;4.25;;;;;18.28;52.95;101502.34;5080175;28;45410;-45
2021/08/18 02:18:15;;;;;;;;;6.00;2.75;;;;;18.28;52.96;101499.69;5082173;28;45227;-48
2021/08/18 02:20:43;;;;;;;;;4.00;4.00;;;;;18.29;53.30;101491.66;5083301;27;45338;-46
2021/08/18 02:23:09;;;;;;;;;6.50;5.00;;;;;18.28;52.93;101495.25;5082455;28;45465;-49
2021/08/18 02:25:35;;;;;;;;;4.50;3.75;;;;;18.27;52.90;101493.50;5083597;28;45302;-47
2021/08/18 02:28:01;;;;;;;;;2.00;2.00;;;;;18.25;52.80;101486.50;5083483;28;45455;-46
2021/08/18 02:30:28;;;;;;;;;3.75;3.75;;;;;18.28;53.12;101497.03;5083214;27;46096;-47
2021/08/18 02:32:54;;;;;;;;;4.00;3.00;;;;;18.25;53.13;101489.16;5083236;28;45278;-46
2021/08/18 02:35:20;;;;;;;;;3.25;3.25;;;;;18.26;53.17;101497.06;5083188;27;45236;-47
2021/08/18 02:37:47;;;;;;;;;6.00;3.00;;;;;18.25;53.16;101490.03;5083528;28;45219;-47
2021/08/18 02:40:16;;;;;;;;;6.00;4.75;;;;;18.22;53.13;101482.16;5083025;27;46218;-46
2021/08/18 02:42:42;;;;;;;;;3.25;3.00;;;;;18.24;53.17;101493.63;5083350;28;45307;-44
2021/08/18 02:45:08;;;;;;;;;3.25;3.25;;;;;18.19;53.28;101474.28;5083285;28;45234;-47
2021/08/18 02:47:33;;;;;;;;;4.75;4.75;;;;;18.21;53.20;101485.72;5083276;28;45246;-48
2021/08/18 02:49:59;;;;;;;;;5.25;3.50;;;;;18.23;53.54;101485.69;5082697;27;46060;-47
2021/08/18 02:52:24;;;;;;;;;5.25;3.25;;;;;18.24;53.32;101482.09;5081966;28;45258;-49
2021/08/18 02:54:50;;;;;;;;;3.50;3.50;;;;;18.22;52.96;101473.31;5083207;28;45229;-48
2021/08/18 02:57:15;;;;;;;;;3.00;3.00;;;;;18.22;53.12;101478.63;5083029;28;45234;-49
2021/08/18 02:59:40;;;;;;;;;3.00;3.00;;;;;18.23;53.31;101480.38;5082863;28;46145;-49
2021/08/18 03:02:05;;;;;;;;;5.25;2.25;;;;;18.25;53.37;101473.19;5081860;27;45449;-49
2021/08/18 03:04:31;;;;;;;;;4.50;4.50;;;;;18.23;53.22;101475.91;5082827;28;45410;-49
2021/08/18 03:06:57;;;;;;;;;5.75;4.00;;;;;18.22;53.39;101468.84;5083071;28;45173;-47
2021/08/18 03:09:23;;;;;;;;;2.00;1.75;;;;;18.26;53.45;101474.94;5081477;28;47028;-45
2021/08/18 03:11:50;;;;;;;;;8.75;3.75;;;;;18.26;53.14;101473.13;5082808;27;45482;-44
2021/08/18 03:14:16;;;;;;;;;4.50;3.00;;;;;18.23;53.19;101477.72;5082741;28;45373;-46
2021/08/18 03:16:41;;;;;;;;;2.25;2.00;;;;;18.25;53.11;101474.06;5082728;28;45325;-44
2021/08/18 03:19:07;;;;;;;;;3.25;2.50;;;;;18.24;53.33;101482.09;5082321;28;45473;-49
2021/08/18 03:21:33;;;;;;;;;8.25;4.00;;;;;18.24;53.34;101477.66;5081369;27;45449;-45
2021/08/18 03:23:58;;;;;;;;;3.50;2.75;;;;;18.24;53.20;101475.00;5082503;28;45247;-46
2021/08/18 03:26:23;;;;;;;;;5.25;4.00;;;;;18.26;53.44;101478.44;5082744;28;45207;-47
2021/08/18 03:28:49;;;;;;;;;4.00;2.50;;;;;18.24;53.34;101474.09;5082237;28;45376;-46
2021/08/18 03:31:14;;;;;;;;;7.25;3.75;;;;;18.25;53.10;101474.06;5082670;27;45228;-48
2021/08/18 03:33:39;;;;;;;;;4.00;4.00;;;;;18.24;53.35;101472.34;5082394;28;45146;-46
2021/08/18 03:36:05;;;;;;;;;5.50;4.50;;;;;18.25;53.41;101478.50;5082550;28;45330;-48
2021/08/18 03:38:30;;;;;;;;;7.25;4.00;;;;;18.16;53.29;101464.63;5082342;28;45218;-46
2021/08/18 03:40:55;;;;;;;;;2.50;2.00;;;;;18.22;53.34;101466.19;5081022;27;45237;-46
2021/08/18 03:43:21;;;;;;;;;4.75;4.75;;;;;18.22;53.55;101460.88;5082418;28;45231;-48
2021/08/18 03:45:47;;;;;;;;;3.00;3.00;;;;;18.19;53.50;101469.81;5082385;28;45177;-44
2021/08/18 03:48:12;;;;;;;;;4.00;3.00;;;;;18.21;53.47;101466.25;5080955;28;46020;-50
2021/08/18 03:50:38;;;;;;;;;5.00;4.00;;;;;18.19;53.33;101467.16;5082008;27;45372;-47
2021/08/18 03:53:03;;;;;;;;;6.00;5.75;;;;;18.16;53.57;101467.28;5082477;28;45350;-48
2021/08/18 03:55:29;;;;;;;;;5.25;4.00;;;;;18.15;53.52;101462.88;5082244;28;45652;-47
2021/08/18 03:57:54;;;;;;;;;6.00;4.00;;;;;18.15;53.71;101468.19;5081925;28;46081;-49
2021/08/18 04:00:21;;;;;;;;;6.00;5.00;;;;;18.16;53.58;101464.63;5080582;28;45450;-47
2021/08/18 04:02:47;;;;;;;;;4.75;4.75;;;;;18.15;53.46;101465.53;5082234;28;45326;-46
2021/08/18 04:05:12;;;;;;;;;4.75;4.75;;;;;18.18;53.47;101464.56;5081565;28;46186;-49
2021/08/18 04:07:37;;;;;;;;;5.50;4.25;;;;;18.16;53.71;101458.41;5081805;28;45269;-46
2021/08/18 04:10:05;;;;;;;;;5.50;5.50;;;;;18.15;53.65;101468.19;5081989;27;45416;-50
2021/08/18 04:12:30;;;;;;;;;5.25;5.00;;;;;18.13;53.84;101464.72;5081896;28;45243;-46
2021/08/18 04:14:56;;;;;;;;;5.75;5.25;;;;;18.14;53.85;101461.13;5081682;28;45240;-47
2021/08/18 04:17:21;;;;;;;;;5.75;5.75;;;;;18.16;53.65;101464.63;5081728;28;46061;-45
2021/08/18 04:19:47;;;;;;;;;6.00;4.50;;;;;18.09;53.82;101459.56;5081408;27;45288;-44
2021/08/18 04:22:12;;;;;;;;;6.75;5.75;;;;;18.12;53.76;101465.63;5081767;28;45677;-49
2021/08/18 04:24:37;;;;;;;;;4.75;4.25;;;;;18.12;53.75;101462.97;5081659;28;45149;-45
2021/08/18 04:27:03;;;;;;;;;6.25;6.00;;;;;18.16;53.76;101467.28;5081452;28;46423;-46
2021/08/18 04:29:29;;;;;;;;;6.00;6.00;;;;;18.15;53.67;101470.84;5080230;28;45520;-46
2021/08/18 04:31:54;;;;;;;;;4.50;4.50;;;;;18.15;54.00;101464.66;5081717;27;45390;-44
2021/08/18 04:34:20;;;;;;;;;6.75;5.75;;;;;18.11;53.86;101471.00;5081149;28;45484;-48
2021/08/18 04:36:45;;;;;;;;;5.00;5.00;;;;;18.09;53.71;101475.53;5080142;28;47948;-46
2021/08/18 04:39:11;;;;;;;;;8.75;7.25;;;;;18.10;53.95;101470.16;5081371;28;45467;-46
2021/08/18 04:41:36;;;;;;;;;4.50;4.00;;;;;18.10;53.88;101470.16;5081062;27;45365;-48
2021/08/18 04:44:01;;;;;;;;;6.00;6.00;;;;;18.11;53.99;101471.91;5081165;28;45395;-47
2021/08/18 04:46:27;;;;;;;;;7.50;5.00;;;;;18.11;53.87;101468.34;5081269;28;46616;-46
2021/08/18 04:48:53;;;;;;;;;5.50;5.50;;;;;18.13;54.08;101477.16;5080955;28;45277;-48
2021/08/18 04:51:19;;;;;;;;;4.50;4.50;;;;;18.08;53.93;101468.47;5081385;28;45313;-47
2021/08/18 04:53:44;;;;;;;;;7.75;4.75;;;;;18.08;54.02;101465.81;5081180;28;45153;-47
2021/08/18 04:56:09;;;;;;;;;6.50;5.50;;;;;18.08;53.87;101471.13;5081401;28;45587;-45
2021/08/18 04:58:35;;;;;;;;;4.25;4.25;;;;;18.09;54.24;101475.53;5080833;28;45331;-47
2021/08/18 05:01:00;;;;;;;;;8.25;7.25;;;;;18.06;53.99;101468.50;5081250;27;45229;-47
2021/08/18 05:03:25;;;;;;;;;7.00;6.00;;;;;18.07;54.16;101470.25;5080864;28;45517;-47
2021/08/18 05:05:51;;;;;;;;;8.00;5.75;;;;;18.06;54.02;101468.50;5081096;28;45989;-46
2021/08/18 05:08:18;;;;;;;;;5.75;5.00;;;;;18.07;53.94;101469.38;5080968;28;45239;-46
2021/08/18 05:10:44;;;;;;;;;6.25;6.00;;;;;18.07;54.05;101470.25;5081353;28;45405;-44
2021/08/18 05:13:09;;;;;;;;;6.50;6.00;;;;;18.05;54.28;101464.13;5079299;28;45430;-49
2021/08/18 05:15:35;;;;;;;;;4.50;4.50;;;;;18.07;54.16;101478.22;5080650;28;46280;-49
2021/08/18 05:18:00;;;;;;;;;7.00;6.25;;;;;18.07;54.19;101467.56;5080877;28;45460;-45
2021/08/18 05:20:26;;;;;;;;;3.75;3.75;;;;;18.07;54.39;101469.38;5080723;28;45490;-46
2021/08/18 05:22:51;;;;;;;;;5.75;4.50;;;;;18.09;54.06;101480.84;5080567;28;45381;-46
2021/08/18 05:25:17;;;;;;;;;5.75;5.50;;;;;18.08;54.23;101466.66;5080704;28;45940;-47
2021/08/18 05:27:44;;;;;;;;;7.75;6.00;;;;;18.07;54.19;101467.56;5080525;28;45299;-49
2021/08/18 05:30:12;;;;;;;;;5.00;4.25;;;;;18.09;54.27;101472.88;5080680;27;45281;-47
2021/08/18 05:32:38;;;;;;;;;6.25;5.25;;;;;18.09;54.05;101465.75;5080418;28;45311;-48
2021/08/18 05:35:09;;;;;;;;;6.50;5.50;;;;;18.08;54.14;101469.31;5080316;27;45341;-47
2021/08/18 05:37:35;;;;;;;;;8.00;5.00;;;;;18.10;54.33;101474.59;5080386;28;45362;-48
2021/08/18 05:40:01;;;;;;;;;7.00;5.75;;;;;18.12;54.06;101470.09;5080550;28;45402;-49
2021/08/18 05:42:26;;;;;;;;;6.50;5.50;;;;;18.12;54.38;101476.25;5079119;28;45405;-47
2021/08/18 05:44:51;;;;;;;;;10.50;7.50;;;;;18.13;54.34;101486.00;5080479;28;45169;-48
2021/08/18 05:47:17;;;;;;;;;6.00;5.25;;;;;18.14;54.15;101484.22;5080245;28;45232;-48
2021/08/18 05:49:42;;;;;;;;;7.50;6.25;;;;;18.17;54.40;101484.09;5080351;27;45245;-46
2021/08/18 05:52:08;;;;;;;;;6.00;4.25;;;;;18.17;54.11;101492.94;5078891;28;51476;-47
2021/08/18 05:54:33;;;;;;;;;6.75;4.50;;;;;18.16;54.24;101480.59;5080370;28;45175;-45
2021/08/18 05:56:58;;;;;;;;;7.00;6.75;;;;;18.20;54.23;101492.00;5080091;28;45276;-47
2021/08/18 05:59:24;;;;;;;;;4.25;4.25;;;;;18.20;54.19;101481.34;5080535;28;45392;-44
2021/08/18 06:01:49;;;;;;;;;6.00;6.00;;;;;18.19;54.22;101488.44;5080171;28;45547;-45
2021/08/18 06:04:14;;;;;;;;;6.25;6.00;;;;;18.19;54.36;101480.47;5079911;28;46076;-45
2021/08/18 06:06:40;;;;;;;;;5.00;5.00;;;;;18.18;54.32;101484.03;5079936;28;45540;-45
2021/08/18 06:09:05;;;;;;;;;7.00;6.00;;;;;18.19;54.48;101488.44;5079039;28;45244;-46
2021/08/18 06:11:30;;;;;;;;;5.25;5.25;;;;;18.19;54.60;101484.94;5080061;28;45386;-49
2021/08/18 06:13:56;;;;;;;;;6.25;6.25;;;;;18.18;54.39;101486.69;5079975;28;45333;-45
2021/08/18 06:16:21;;;;;;;;;6.00;4.75;;;;;18.18;54.49;101492.00;5079839;28;45313;-47
2021/08/18 06:18:47;;;;;;;;;5.50;5.25;;;;;18.19;54.37;101491.09;5079946;28;45483;-47
2021/08/18 06:21:13;;;;;;;;;4.25;4.25;;;;;18.22;54.53;101494.59;5079775;28;45304;-48
2021/08/18 06:23:38;;;;;;;;;7.75;5.00;;;;;18.22;54.55;101495.44;5079932;28;46219;-50
2021/08/18 06:26:04;;;;;;;;;5.25;5.25;;;;;18.24;54.52;101500.69;5079814;28;45203;-49
2021/08/18 06:28:29;;;;;;;;;6.50;4.50;;;;;18.25;54.66;101499.78;5079809;28;45184;-45
2021/08/18 06:30:54;;;;;;;;;7.00;5.25;;;;;18.25;54.67;101494.47;5079740;28;45235;-45
2021/08/18 06:33:20;;;;;;;;;5.25;5.00;;;;;18.24;54.78;101493.63;5079696;28;45320;-45
2021/08/18 06:35:46;;;;;;;;;5.75;5.75;;;;;18.25;54.50;101497.13;5078355;28;45319;-49
2021/08/18 06:38:11;;;;;;;;;7.00;7.00;;;;;18.26;54.63;101497.06;5079997;28;45441;-47
2021/08/18 06:40:37;;;;;;;;;6.50;6.50;;;;;18.28;54.45;101499.69;5079668;28;45382;-47
2021/08/18 06:43:03;;;;;;;;;8.25;6.00;;;;;18.28;54.55;101494.38;5079537;28;46032;-45
2021/08/18 06:45:31;;;;;;;;;7.75;5.75;;;;;18.32;54.61;101498.66;5079732;28;45338;-45
2021/08/18 06:47:56;;;;;;;;;5.50;5.50;;;;;18.35;54.81;101498.53;5079732;28;45331;-47
2021/08/18 06:50:22;;;;;;;;;8.00;7.00;;;;;18.37;54.66;101503.84;5078028;28;45383;-45
2021/08/18 06:52:48;;;;;;;;;5.50;5.00;;;;;18.38;54.65;101498.44;5079551;28;46427;-46
2021/08/18 06:55:13;;;;;;;;;4.75;4.50;;;;;18.39;54.56;101502.84;5079402;28;45322;-46
2021/08/18 06:57:39;;;;;;;;;6.50;6.50;;;;;18.42;54.60;101505.41;5079714;28;45251;-48
2021/08/18 07:00:06;;;;;;;;;5.50;5.50;;;;;18.45;54.70;101513.28;5079198;28;45212;-46
2021/08/18 07:02:31;;;;;;;;;6.00;6.00;;;;;18.46;54.78;101504.34;5079263;28;45240;-45
2021/08/18 07:04:57;;;;;;;;;6.75;6.00;;;;;18.51;54.85;101512.19;5081876;28;45233;-48
2021/08/18 07:07:22;;;;;;;;;7.75;5.50;;;;;18.51;54.40;101501.53;5083198;28;45192;-46
2021/08/18 07:09:47;;;;;;;;;4.50;4.50;;;;;18.55;54.50;101510.28;5082610;27;45239;-46
2021/08/18 07:12:12;;;;;;;;;7.00;6.75;;;;;18.56;54.47;101504.91;5082674;28;46226;-48
2021/08/18 07:14:38;;;;;;;;;6.00;5.75;;;;;18.61;54.70;101504.75;5082590;28;45236;-48
2021/08/18 07:17:03;;;;;;;;;6.50;6.50;;;;;18.61;54.81;101507.41;5083094;28;45396;-45
2021/08/18 07:19:29;;;;;;;;;7.00;4.25;;;;;18.60;54.36;101495.03;5082397;28;45379;-47
2021/08/18 07:21:54;;;;;;;;;8.00;8.00;;;;;18.64;54.68;101501.97;5082542;27;46194;-46
2021/08/18 07:24:19;;;;;;;;;6.25;5.00;;;;;18.66;54.50;101500.13;5082485;28;45330;-46
2021/08/18 07:26:45;;;;;;;;;6.75;6.25;;;;;18.72;54.59;101504.38;5082594;28;45508;-45
2021/08/18 07:29:10;;;;;;;;;5.50;5.50;;;;;18.72;54.73;101502.56;5082451;28;45363;-46
2021/08/18 07:31:35;;;;;;;;;5.75;5.75;;;;;18.75;54.46;101501.59;5082499;27;46015;-46
2021/08/18 07:34:01;;;;;;;;;6.25;5.75;;;;;18.74;54.56;101492.75;5082024;28;45264;-45
2021/08/18 07:36:26;;;;;;;;;8.25;8.25;;;;;18.84;54.75;101498.56;5082744;28;45255;-46
2021/08/18 07:38:51;;;;;;;;;6.75;6.75;;;;;18.86;54.37;101490.56;5082313;28;45521;-49
2021/08/18 07:41:17;;;;;;;;;3.75;3.75;;;;;18.90;54.44;101497.50;5082275;27;45357;-50
2021/08/18 07:43:43;;;;;;;;;5.25;4.50;;;;;18.95;54.52;101503.56;5082168;28;45512;-49
2021/08/18 07:46:08;;;;;;;;;4.25;4.25;;;;;18.97;54.12;101499.03;5082532;28;45196;-45
2021/08/18 07:48:34;;;;;;;;;7.00;7.00;;;;;19.02;54.17;101493.53;5081858;28;45255;-50
2021/08/18 07:50:59;;;;;;;;;6.00;6.00;;;;;19.07;54.26;101500.44;5082097;27;45195;-49
2021/08/18 07:53:26;;;;;;;;;7.00;7.00;;;;;19.09;54.33;101495.91;5082146;28;45467;-50
2021/08/18 07:55:51;;;;;;;;;6.25;4.75;;;;;19.15;54.62;101497.47;5082449;28;45311;-48
2021/08/18 07:58:17;;;;;;;;;4.00;4.00;;;;;19.16;54.27;101488.56;5081910;28;45255;-47
2021/08/18 08:00:42;;;;;;;;;5.50;4.50;;;;;19.23;54.64;101490.06;5082189;27;46002;-48
2021/08/18 08:03:08;;;;;;;;;6.00;4.00;;;;;19.27;54.38;101496.13;5081984;28;45250;-46
2021/08/18 08:05:33;;;;;;;;;6.50;4.50;;;;;19.34;54.05;101494.97;5080773;28;45322;-47
2021/08/18 08:07:58;;;;;;;;;5.50;5.00;;;;;19.39;54.30;101492.97;5081830;28;45317;-46
2021/08/18 08:10:24;;;;;;;;;5.50;4.50;;;;;19.46;54.48;101494.47;5081835;28;45469;-47
2021/08/18 08:12:49;;;;;;;;;5.50;5.50;;;;;19.52;53.78;101489.84;5063355;28;45369;-48
2021/08/18 08:15:14;;;;;;;;;7.75;6.00;;;;;19.57;54.18;101493.19;5081154;28;45300;-48
2021/08/18 08:17:40;;;;;;;;;4.75;4.50;;;;;19.58;54.40;101481.59;5081657;28;45556;-46
2021/08/18 08:20:06;;;;;;;;;6.50;5.75;;;;;19.63;54.27;101490.28;5081487;27;46090;-49
2021/08/18 08:22:32;;;;;;;;;5.25;5.00;;;;;19.68;53.54;101485.63;5081491;28;45395;-49
2021/08/18 08:24:57;;;;;;;;;7.00;3.50;;;;;19.75;54.25;101489.78;5081695;28;45393;-46
2021/08/18 08:27:22;;;;;;;;;8.25;7.25;;;;;19.77;54.28;101493.25;5081594;28;45370;-50
2021/08/18 08:29:48;;;;;;;;;5.75;5.75;;;;;19.84;53.74;101496.56;5081441;27;46285;-48
2021/08/18 08:32:13;;;;;;;;;5.00;4.50;;;;;19.91;53.95;101497.16;5081606;28;45480;-49
2021/08/18 08:34:38;;;;;;;;;8.75;5.00;;;;;19.94;53.91;101497.06;5081296;28;45553;-46
2021/08/18 08:37:04;;;;;;;;;4.00;4.00;;;;;19.97;53.50;101492.47;5080191;28;46121;-49
2021/08/18 08:39:30;;;;;;;;;2.75;2.75;;;;;20.04;53.88;101503.72;5081416;28;45362;-49
2021/08/18 08:41:55;;;;;;;;;4.50;4.25;;;;;20.08;53.75;101497.31;5079887;27;45418;-48
2021/08/18 08:44:23;;;;;;;;;6.00;4.00;;;;;20.12;53.19;101506.06;5081597;28;45235;-50
2021/08/18 08:46:51;;;;;;;;;7.75;4.50;;;;;20.15;53.67;101508.63;5081249;28;45331;-47
2021/08/18 08:49:18;;;;;;;;;5.00;5.00;;;;;20.17;53.50;101509.41;5080928;28;46539;-47
2021/08/18 08:51:45;;;;;;;;;7.75;5.25;;;;;20.20;53.15;101509.31;5081000;28;45236;-47
2021/08/18 08:54:11;;;;;;;;;6.00;5.25;;;;;20.19;53.08;101501.34;5080082;28;45307;-50
2021/08/18 08:56:36;;;;;;;;;6.00;4.50;;;;;20.22;53.00;101507.41;5081083;28;45309;-47
2021/08/18 08:59:01;;;;;;;;;5.25;5.25;;;;;20.26;53.34;101508.16;5081099;28;46098;-46
2021/08/18 09:01:27;;;;;;;;;6.00;4.25;;;;;20.24;52.98;101508.22;5081067;27;45193;-51
2021/08/18 09:03:52;;;;;;;;;5.25;4.75;;;;;20.26;53.39;101509.03;5081208;28;45297;-50
2021/08/18 09:06:21;;;;;;;;;8.00;6.75;;;;;20.28;52.86;101501.81;5080897;28;45228;-51
2021/08/18 09:08:56;;;;;;;;;6.50;5.25;;;;;20.34;53.12;101502.47;5081062;28;46632;-50
2021/08/18 09:11:21;;;;;;;;;6.00;6.00;;;;;20.38;53.01;101501.44;5080681;28;45264;-49
2021/08/18 09:13:52;;;;;;;;;6.00;6.00;;;;;20.42;52.79;101505.69;5080855;28;45457;-49
2021/08/18 09:16:29;;;;;;;;;7.00;6.00;;;;;20.46;53.04;101508.19;5080704;28;45260;-50
2021/08/18 09:18:55;;;;;;;;;5.25;5.00;;;;;20.48;53.04;101502.78;5080397;28;46566;-51
2021/08/18 09:21:37;;;;;;;;;4.00;4.00;;;;;20.54;52.55;101501.59;5080625;27;45484;-51
2021/08/18 09:24:24;;;;;;;;;5.00;5.00;;;;;20.55;52.94;101498.91;5080719;28;45221;-51
2021/08/18 09:27:10;;;;;;;;;7.00;7.00;;;;;20.58;52.45;101505.91;5080148;28;45542;-50
2021/08/18 09:29:36;;;;;;;;;6.50;5.25;;;;;20.60;52.33;101502.22;5062025;28;46022;-51
2021/08/18 09:32:25;;;;;;;;;6.50;6.00;;;;;20.61;52.47;101505.75;5080373;27;45332;-47
2021/08/18 09:35:01;;;;;;;;;3.00;3.00;;;;;20.63;52.30;101506.56;5080301;28;45327;-50
2021/08/18 09:37:27;;;;;;;;;4.00;4.00;;;;;20.62;52.18;101503.00;5080401;28;45174;-48
2021/08/18 09:39:54;;;;;;;;;4.50;4.25;;;;;20.63;52.89;101498.56;5080342;28;46738;-52
2021/08/18 09:42:26;;;;;;;;;4.00;4.00;;;;;20.68;52.69;101501.00;5080239;28;45473;-45
2021/08/18 09:45:11;;;;;;;;;6.00;5.25;;;;;20.68;52.13;101501.88;5080623;28;45399;-48
2021/08/18 09:47:55;;;;;;;;;3.00;3.00;;;;;20.68;51.94;101498.31;5068834;28;45411;-54
2021/08/18 09:50:22;;;;;;;;;4.00;4.00;;;;;20.67;52.10;101494.81;5079771;27;46211;-47
2021/08/18 09:52:49;;;;;;;;;3.50;3.50;;;;;20.69;52.57;101495.63;5062110;28;45200;-47
2021/08/18 09:55:14;;;;;;;;;6.50;6.50;;;;;20.71;51.88;101492.91;5080292;28;45276;-46
2021/08/18 09:57:40;;;;;;;;;5.25;4.00;;;;;20.73;51.99;101493.72;5080136;28;45397;-48
2021/08/18 10:00:07;;;;;;;;;5.75;5.00;;;;;20.74;52.04;101484.72;5079853;28;46237;-47
2021/08/18 10:02:33;;;;;;;;;7.00;4.75;;;;;20.81;52.14;101491.53;5080484;28;45356;-46
2021/08/18 10:04:59;;;;;;;;;4.50;4.50;;;;;20.85;52.30;101482.44;5079854;28;45237;-50
2021/08/18 10:07:27;;;;;;;;;7.00;6.00;;;;;20.94;52.13;101483.81;5080249;28;45216;-47
2021/08/18 10:09:54;;;;;;;;;6.00;5.25;;;;;21.03;52.26;101477.19;5079789;28;45319;-50
2021/08/18 10:12:19;;;;;;;;;8.25;7.00;;;;;21.06;51.92;101477.06;5079918;28;45294;-47
2021/08/18 10:14:45;;;;;;;;;6.50;5.50;;;;;21.22;52.01;101479.84;5080020;28;45252;-47
2021/08/18 10:17:10;;;;;;;;;7.50;5.75;;;;;21.30;51.95;101476.84;5080009;28;45345;-46
2021/08/18 10:19:36;;;;;;;;;6.00;4.00;;;;;21.39;51.38;101479.91;5079544;28;46294;-49
2021/08/18 10:22:01;;;;;;;;;5.50;5.50;;;;;21.41;51.76;101471.84;5079784;28;45261;-47
2021/08/18 10:24:35;;;;;;;;;6.00;5.00;;;;;21.60;51.91;101485.22;5079950;28;45452;-47
2021/08/18 10:27:04;;;;;;;;;4.75;4.00;;;;;21.70;51.46;101480.28;5079759;28;45416;-48
2021/08/18 10:29:34;;;;;;;;;5.00;5.00;;;;;21.77;51.24;101484.38;5079633;28;46444;-50
2021/08/18 10:32:00;;;;;;;;;3.00;3.00;;;;;21.84;51.00;101476.94;5061824;28;45465;-45
2021/08/18 10:34:34;;;;;;;;;6.00;6.00;;;;;21.91;51.25;101475.66;5079484;28;45261;-45
2021/08/18 10:37:20;;;;;;;;;7.50;5.00;;;;;21.99;51.20;101483.31;5078419;28;45843;-49
2021/08/18 10:39:51;;;;;;;;;5.00;5.00;;;;;22.02;50.99;101480.47;5082255;27;46097;-46
2021/08/18 10:42:31;;;;;;;;;4.00;4.00;;;;;22.05;51.27;101483.00;5083066;28;45283;-49
2021/08/18 10:44:56;;;;;;;;;2.00;2.00;;;;;22.01;51.22;101476.94;5083341;28;45306;-46
2021/08/18 10:47:34;;;;;;;;;4.75;4.75;;;;;22.06;50.94;101479.38;5082940;28;45564;-46
2021/08/18 10:50:13;;;;;;;;;4.50;2.00;;;;;22.04;51.21;101478.59;5081438;28;48458;-48
2021/08/18 10:52:41;;;;;;;;;4.00;2.00;;;;;22.05;51.10;101472.31;5083361;28;45286;-49
2021/08/18 10:55:13;;;;;;;;;2.00;2.00;;;;;22.10;50.90;101475.63;5083030;28;45327;-45
2021/08/18 10:57:49;;;;;;;;;2.00;2.00;;;;;22.16;51.49;101469.94;5083139;28;45369;-51
2021/08/18 11:00:20;;;;;;;;;4.00;2.00;;;;;;;;5082622;27;46072;-49
2021/08/18 11:02:49;;;;;;;;;4.00;4.00;;;;;22.43;51.66;101461.44;5083002;28;45380;-49
2021/08/18 11:05:16;;;;;;;;;3.50;3.25;;;;;22.58;51.33;101465.13;5082795;28;45434;-51
2021/08/18 11:08:06;;;;;;;;;2.25;2.25;;;;;22.77;51.28;101454.28;5082835;28;45267;-49
2021/08/18 11:10:34;;;;;;;;;2.00;2.00;;;;;22.97;51.32;101455.00;5082650;27;46156;-46
2021/08/18 11:13:01;;;;;;;;;3.00;3.00;;;;;23.24;51.20;101457.97;5081196;28;45438;-49
2021/08/18 11:15:26;;;;;;;;;2.00;2.00;;;;;23.58;51.58;101458.72;5082935;28;45405;-51
2021/08/18 11:17:54;;;;;;;;;2.00;2.00;;;;;23.98;51.51;101451.03;5082619;28;45430;-49
2021/08/18 11:20:28;;;;;;;;;6.00;5.25;;;;;24.38;51.21;101446.88;5082363;28;46476;-50
2021/08/18 11:22:59;;;;;;;;;4.25;2.75;;;;;24.67;50.69;101451.34;5082522;28;45251;-51
2021/08/18 11:25:25;;;;;;;;;4.00;3.00;;;;;24.90;50.79;101440.13;5082704;28;45291;-48